createdAt,value
2023-10-29T00:01:45.940Z,100754.42
2023-10-29T00:04:14.109Z,100756.23
2023-10-29T00:06:42.290Z,100758.91
2023-10-29T00:09:10.484Z,100760.02
2023-10-29T00:11:38.601Z,100760.94
2023-10-29T00:14:07.570Z,100767.43
2023-10-29T00:16:35.804Z,100769.77
2023-10-29T00:19:04.396Z,100771.92
2023-10-29T00:21:35.785Z,100772.35
2023-10-29T00:24:04.256Z,100776.09
2023-10-29T00:26:32.511Z,100762.65
2023-10-29T00:29:00.729Z,100782.39
2023-10-29T00:31:28.964Z,100780.41
2023-10-29T00:33:57.172Z,100778.77
2023-10-29T00:36:25.338Z,100781.65
2023-10-29T00:38:53.598Z,100783.30
2023-10-29T00:41:21.870Z,100778.30
2023-10-29T00:43:50.002Z,100772.73
2023-10-29T00:46:18.331Z,100768.02
2023-10-29T00:48:47.325Z,100749.80
2023-10-29T00:51:15.849Z,100768.58
2023-10-29T00:53:45.509Z,100765.45
2023-10-29T00:56:15.201Z,100761.05
2023-10-29T00:58:43.564Z,100766.98
2023-10-29T01:01:11.795Z,100769.09
2023-10-29T01:03:40.120Z,100763.05
2023-10-29T01:06:09.586Z,100770.52
2023-10-29T01:08:38.925Z,100777.16
2023-10-29T01:11:08.336Z,100773.09
2023-10-29T01:13:36.448Z,100765.52
2023-10-29T01:16:06.482Z,100764.23
2023-10-29T01:18:34.703Z,100768.21
2023-10-29T01:21:02.930Z,100773.40
2023-10-29T01:23:31.624Z,100773.48
2023-10-29T01:26:00.769Z,100775.34
2023-10-29T01:28:29.089Z,100778.96
2023-10-29T01:30:57.454Z,100764.35
2023-10-29T01:33:27.992Z,100793.61
2023-10-29T01:35:57.448Z,100792.77
2023-10-29T01:38:25.641Z,100791.91
2023-10-29T01:40:53.951Z,100786.13
2023-10-29T01:43:22.610Z,100758.98
2023-10-29T01:45:50.734Z,100785.63
2023-10-29T01:48:19.025Z,100785.61
2023-10-29T01:50:48.705Z,100777.05
2023-10-29T01:53:18.611Z,100769.40
2023-10-29T01:55:46.782Z,100769.75
2023-10-29T01:58:15.025Z,100768.02
2023-10-29T02:00:43.153Z,100764.54
2023-10-29T02:03:11.398Z,100752.31
2023-10-29T02:05:39.820Z,100749.70
2023-10-29T02:08:07.947Z,100752.50
2023-10-29T02:10:36.045Z,100753.04
2023-10-29T02:13:04.142Z,100757.23
2023-10-29T02:15:32.276Z,100754.98
2023-10-29T02:18:00.535Z,100754.38
2023-10-29T02:20:28.946Z,100757.66
2023-10-29T02:22:57.074Z,100757.52
2023-10-29T02:25:25.212Z,100750.38
2023-10-29T02:27:53.319Z,100754.41
2023-10-29T02:30:21.432Z,100757.91
2023-10-29T02:32:51.126Z,100757.77
2023-10-29T02:35:19.276Z,100752.17
2023-10-29T02:37:49.460Z,100744.52
2023-10-29T02:40:17.688Z,100736.52
2023-10-29T02:42:45.975Z,100730.99
2023-10-29T02:45:14.128Z,100730.91
2023-10-29T02:47:42.260Z,100738.48
2023-10-29T02:50:10.663Z,100741.71
2023-10-29T02:52:38.863Z,100735.48
2023-10-29T02:55:08.296Z,100737.13
2023-10-29T02:57:36.416Z,100732.43
2023-10-29T03:00:05.535Z,100723.03
2023-10-29T03:02:33.743Z,100721.89
2023-10-29T03:05:02.354Z,100718.38
2023-10-29T03:07:31.880Z,100716.64
2023-10-29T03:10:00.137Z,100717.73
2023-10-29T03:12:28.393Z,100715.84
2023-10-29T03:14:56.718Z,100721.10
2023-10-29T03:17:24.839Z,100720.63
2023-10-29T03:19:53.063Z,100720.67
2023-10-29T03:22:21.170Z,100719.33
2023-10-29T03:24:49.687Z,100728.64
2023-10-29T03:27:18.195Z,100733.02
2023-10-29T03:29:46.403Z,100739.90
2023-10-29T03:32:14.559Z,100746.93
2023-10-29T03:34:42.675Z,100748.70
2023-10-29T03:37:10.885Z,100751.38
2023-10-29T03:39:38.985Z,100745.14
2023-10-29T03:42:08.895Z,100742.88
2023-10-29T03:44:37.035Z,100739.56
2023-10-29T03:47:05.484Z,100743.40
2023-10-29T03:49:33.867Z,100752.32
2023-10-29T03:52:02.133Z,100747.95
2023-10-29T03:54:30.238Z,100744.45
2023-10-29T03:56:58.488Z,100747.73
2023-10-29T03:59:26.971Z,100754.33
2023-10-29T04:01:55.199Z,100755.34
2023-10-29T04:04:23.441Z,100759.34
2023-10-29T04:06:51.708Z,100760.16
2023-10-29T04:09:20.129Z,100754.28
2023-10-29T04:11:48.404Z,100759.59
2023-10-29T04:14:17.505Z,100761.16
2023-10-29T04:16:45.631Z,100765.52
2023-10-29T04:19:13.761Z,100765.83
2023-10-29T04:21:41.853Z,100769.11
2023-10-29T04:24:10.164Z,100764.35
2023-10-29T04:26:38.629Z,100763.27
2023-10-29T04:29:06.849Z,100741.99
2023-10-29T04:31:35.029Z,100761.07
2023-10-29T04:34:03.268Z,100759.83
2023-10-29T04:36:31.440Z,100741.77
2023-10-29T04:38:59.622Z,100765.53
2023-10-29T04:41:27.820Z,100764.62
2023-10-29T04:43:55.997Z,100763.70
2023-10-29T04:46:24.196Z,100766.98
2023-10-29T04:48:52.446Z,100764.32
2023-10-29T04:51:21.373Z,100759.92
2023-10-29T04:53:49.474Z,100760.75
2023-10-29T04:56:17.581Z,100757.73
2023-10-29T04:58:45.692Z,100754.52
2023-10-29T05:01:14.810Z,100744.38
2023-10-29T05:03:43.056Z,100746.73
2023-10-29T05:06:21.654Z,100747.41
2023-10-29T05:08:51.132Z,100754.21
2023-10-29T05:11:19.377Z,100756.30
2023-10-29T05:13:47.554Z,100759.23
2023-10-29T05:16:16.113Z,100768.79
2023-10-29T05:18:44.230Z,100772.79
2023-10-29T05:21:12.673Z,100777.29
2023-10-29T05:23:40.892Z,100786.64
2023-10-29T05:26:09.003Z,100790.98
2023-10-29T05:28:37.339Z,100790.58
2023-10-29T05:31:05.499Z,100782.63
2023-10-29T05:33:33.724Z,100780.80
2023-10-29T05:36:02.354Z,100779.00
2023-10-29T05:38:30.945Z,100771.10
2023-10-29T05:40:59.120Z,100774.02
2023-10-29T05:43:27.203Z,100771.19
2023-10-29T05:45:56.125Z,100768.20
2023-10-29T05:48:24.329Z,100766.96
2023-10-29T05:50:53.236Z,100770.79
2023-10-29T05:53:21.442Z,100772.48
2023-10-29T05:55:49.515Z,100765.77
2023-10-29T05:58:17.604Z,100762.80
2023-10-29T06:00:46.325Z,100764.70
2023-10-29T06:03:14.622Z,100756.61
2023-10-29T06:05:43.312Z,100751.84
2023-10-29T06:08:11.552Z,100747.09
2023-10-29T06:10:39.650Z,100740.10
2023-10-29T06:13:07.832Z,100741.31
2023-10-29T06:15:35.987Z,100739.04
2023-10-29T06:18:05.616Z,100735.17
2023-10-29T06:20:34.637Z,100728.84
2023-10-29T06:23:02.762Z,100725.49
2023-10-29T06:25:30.996Z,100726.84
2023-10-29T06:27:59.082Z,100723.98
2023-10-29T06:30:27.305Z,100722.70
2023-10-29T06:32:55.662Z,100712.39
2023-10-29T06:35:24.207Z,100721.43
2023-10-29T06:37:53.757Z,100729.14
2023-10-29T06:40:22.915Z,100726.66
2023-10-29T06:42:51.047Z,100725.09
2023-10-29T06:45:19.189Z,100728.06
2023-10-29T06:47:48.135Z,100720.00
2023-10-29T06:50:16.470Z,100713.99
2023-10-29T06:52:44.681Z,100692.21
2023-10-29T06:55:13.998Z,100714.94
2023-10-29T06:57:42.213Z,100715.96
2023-10-29T07:00:11.011Z,100719.71
2023-10-29T07:02:39.495Z,100702.30
2023-10-29T07:05:08.200Z,100721.46
2023-10-29T07:07:36.408Z,100726.42
2023-10-29T07:10:07.884Z,100723.67
2023-10-29T07:12:36.075Z,100721.48
2023-10-29T07:15:04.744Z,100727.37
2023-10-29T07:17:33.038Z,100727.31
2023-10-29T07:20:01.264Z,100718.86
2023-10-29T07:22:30.530Z,100718.60
2023-10-29T07:24:59.345Z,100719.41
2023-10-29T07:27:27.665Z,100712.70
2023-10-29T07:29:55.793Z,100706.36
2023-10-29T07:32:24.409Z,100695.25
2023-10-29T07:34:52.593Z,100687.01
2023-10-29T07:37:20.814Z,100681.34
2023-10-29T07:39:48.943Z,100682.86
2023-10-29T07:42:17.129Z,100676.80
2023-10-29T07:44:45.226Z,100669.86
2023-10-29T07:47:13.924Z,100677.15
2023-10-29T07:49:43.616Z,100675.52
2023-10-29T07:52:11.802Z,100675.06
2023-10-29T07:54:41.424Z,100668.52
2023-10-29T07:57:09.645Z,100674.75
2023-10-29T07:59:37.870Z,100668.08
2023-10-29T08:02:07.059Z,100663.30
2023-10-29T08:04:35.309Z,100665.90
2023-10-29T08:07:05.121Z,100667.13
2023-10-29T08:09:33.877Z,100639.55
2023-10-29T08:12:02.031Z,100679.19
2023-10-29T08:14:30.287Z,100677.76
2023-10-29T08:16:58.626Z,100675.80
2023-10-29T08:19:28.297Z,100669.77
2023-10-29T08:21:56.431Z,100662.72
2023-10-29T08:24:24.601Z,100658.31
2023-10-29T08:26:52.760Z,100661.10
2023-10-29T08:29:20.888Z,100662.48
2023-10-29T08:31:49.044Z,100657.36
2023-10-29T08:34:17.414Z,100659.47
2023-10-29T08:36:45.579Z,100657.94
2023-10-29T08:39:15.379Z,100653.05
2023-10-29T08:41:43.493Z,100648.51
2023-10-29T08:44:11.725Z,100638.61
2023-10-29T08:46:40.170Z,100634.13
2023-10-29T08:49:08.882Z,100633.46
2023-10-29T08:51:37.013Z,100624.92
2023-10-29T08:54:05.589Z,100617.23
2023-10-29T08:56:35.168Z,100625.61
2023-10-29T08:59:05.587Z,100625.95
2023-10-29T09:01:34.103Z,100631.02
2023-10-29T09:04:05.323Z,100626.02
2023-10-29T09:06:34.018Z,100626.74
2023-10-29T09:09:02.304Z,100629.98
2023-10-29T09:11:30.491Z,100631.67
2023-10-29T09:13:59.136Z,100635.15
2023-10-29T09:16:27.359Z,100633.35
2023-10-29T09:18:55.897Z,100626.55
2023-10-29T09:21:24.131Z,100620.51
2023-10-29T09:23:52.288Z,100622.73
2023-10-29T09:26:20.468Z,100622.66
2023-10-29T09:28:49.304Z,100616.80
2023-10-29T09:31:18.842Z,100612.92
2023-10-29T09:33:48.387Z,100598.38
2023-10-29T09:36:17.886Z,100575.60
2023-10-29T09:38:47.050Z,100591.48
2023-10-29T09:41:21.682Z,100591.77
2023-10-29T09:43:53.411Z,100587.16
2023-10-29T09:46:25.342Z,100584.65
2023-10-29T09:48:55.047Z,100555.40
2023-10-29T09:51:23.537Z,100576.55
2023-10-29T09:53:55.769Z,100571.60
2023-10-29T09:56:25.494Z,100579.48
2023-10-29T09:58:53.843Z,100582.88
2023-10-29T10:01:22.172Z,100582.92
2023-10-29T10:03:50.459Z,100577.86
2023-10-29T10:06:20.837Z,100570.48
2023-10-29T10:08:57.419Z,100559.95
2023-10-29T10:11:25.942Z,100555.21
2023-10-29T10:13:54.272Z,100550.45
2023-10-29T10:16:22.670Z,100550.08
2023-10-29T10:18:56.395Z,100542.81
2023-10-29T10:21:26.395Z,100543.98
2023-10-29T10:23:58.992Z,100539.53
2023-10-29T10:26:30.240Z,100532.63
2023-10-29T10:29:00.901Z,100531.41
2023-10-29T10:31:30.424Z,100532.74
2023-10-29T10:34:12.707Z,100532.02
2023-10-29T10:36:50.523Z,100530.40
2023-10-29T10:39:23.925Z,100512.22
2023-10-29T10:41:52.406Z,100529.42
2023-10-29T10:44:21.431Z,100530.23
2023-10-29T10:46:52.450Z,100529.14
2023-10-29T10:49:21.392Z,100523.47
2023-10-29T10:51:57.362Z,100523.55
2023-10-29T10:54:26.532Z,100516.75
2023-10-29T10:56:57.334Z,100511.55
2023-10-29T10:59:25.610Z,100505.13
2023-10-29T11:01:53.835Z,100500.84
2023-10-29T11:04:25.186Z,100498.17
2023-10-29T11:06:54.410Z,100492.70
2023-10-29T11:09:24.294Z,100488.25
2023-10-29T11:11:55.984Z,100484.27
2023-10-29T11:14:25.481Z,100484.92
2023-10-29T11:16:57.468Z,100479.74
2023-10-29T11:19:48.541Z,100475.73
2023-10-29T11:22:30.472Z,100470.64
2023-10-29T11:25:10.561Z,100458.20
2023-10-29T11:27:40.608Z,100450.14
2023-10-29T11:30:15.967Z,100446.00
2023-10-29T11:32:45.673Z,100440.58
2023-10-29T11:35:20.828Z,100435.80
2023-10-29T11:37:51.852Z,100424.52
2023-10-29T11:40:33.644Z,100418.71
2023-10-29T11:43:20.218Z,100413.45
2023-10-29T11:46:02.356Z,100415.53
2023-10-29T11:48:31.431Z,100416.02
2023-10-29T11:51:10.324Z,100412.95
2023-10-29T11:53:39.311Z,100366.52
2023-10-29T11:56:11.698Z,100400.66
2023-10-29T11:58:40.179Z,100397.15
2023-10-29T12:01:08.650Z,100390.84
2023-10-29T12:03:37.063Z,100383.98
2023-10-29T12:06:05.486Z,100356.66
2023-10-29T12:08:33.865Z,100378.70
2023-10-29T12:11:02.168Z,100373.18
2023-10-29T12:13:43.332Z,100368.43
2023-10-29T12:16:13.430Z,100364.67
2023-10-29T12:18:43.001Z,100363.19
2023-10-29T12:21:11.902Z,100353.01
2023-10-29T12:23:40.389Z,100348.27
2023-10-29T12:26:12.009Z,100343.85
2023-10-29T12:28:40.593Z,100342.61
2023-10-29T12:31:26.048Z,100336.99
2023-10-29T12:33:59.016Z,100330.84
2023-10-29T12:36:28.119Z,100319.77
2023-10-29T12:38:56.381Z,100313.16
2023-10-29T12:41:28.870Z,100310.34
2023-10-29T12:43:58.785Z,100310.65
2023-10-29T12:46:27.793Z,100305.67
2023-10-29T12:49:06.904Z,100299.96
2023-10-29T12:51:42.989Z,100300.25
2023-10-29T12:54:22.912Z,100299.31
2023-10-29T12:56:52.246Z,100297.66
2023-10-29T12:59:21.844Z,100288.92
2023-10-29T13:01:55.854Z,100274.98
2023-10-29T13:04:26.244Z,100275.23
2023-10-29T13:06:56.759Z,100270.90
2023-10-29T13:09:26.787Z,100267.41
2023-10-29T13:11:56.063Z,100259.91
2023-10-29T13:14:24.267Z,100258.94
2023-10-29T13:16:56.787Z,100253.84
2023-10-29T13:19:25.885Z,100252.83
2023-10-29T13:21:54.242Z,100244.80
2023-10-29T13:24:23.931Z,100239.23
2023-10-29T13:26:53.837Z,100232.20
2023-10-29T13:29:22.465Z,100222.18
2023-10-29T13:31:51.201Z,100214.41
2023-10-29T13:34:19.347Z,100217.05
2023-10-29T13:36:47.468Z,100207.90
2023-10-29T13:39:19.664Z,100199.33
2023-10-29T13:41:49.811Z,100194.75
2023-10-29T13:44:18.736Z,100165.88
2023-10-29T13:46:47.066Z,100179.77
2023-10-29T13:49:15.737Z,100185.20
2023-10-29T13:51:46.181Z,100180.83
2023-10-29T13:54:14.548Z,100170.15
2023-10-29T13:56:42.881Z,100165.80
2023-10-29T13:59:11.158Z,100161.61
2023-10-29T14:01:41.091Z,100160.09
2023-10-29T14:04:09.756Z,100157.00
2023-10-29T14:06:38.033Z,100153.51
2023-10-29T14:09:06.763Z,100152.70
2023-10-29T14:11:35.681Z,100151.92
2023-10-29T14:14:04.427Z,100156.53
2023-10-29T14:16:41.107Z,100158.46
2023-10-29T14:19:10.816Z,100157.73
2023-10-29T14:21:39.211Z,100154.41
2023-10-29T14:24:08.822Z,100150.56
2023-10-29T14:26:37.766Z,100140.20
2023-10-29T14:29:06.178Z,100140.08
2023-10-29T14:31:36.162Z,100116.55
2023-10-29T14:34:05.187Z,100121.27
2023-10-29T14:36:33.396Z,100150.35
2023-10-29T14:39:01.561Z,100153.33
2023-10-29T14:41:29.862Z,100151.95
2023-10-29T14:43:58.054Z,100144.17
2023-10-29T14:46:26.165Z,100131.20
2023-10-29T14:48:54.480Z,100155.23
2023-10-29T14:51:22.636Z,100156.44
2023-10-29T14:53:50.949Z,100158.67
2023-10-29T14:56:22.469Z,100175.72
2023-10-29T14:58:50.758Z,100180.41
2023-10-29T15:01:19.026Z,100184.98
2023-10-29T15:03:47.992Z,100173.89
2023-10-29T15:06:16.502Z,100172.86
2023-10-29T15:08:44.666Z,100179.42
2023-10-29T15:11:14.944Z,100174.25
2023-10-29T15:13:48.722Z,100172.20
2023-10-29T15:16:17.478Z,100147.67
2023-10-29T15:18:45.948Z,100141.58
2023-10-29T15:21:19.099Z,100157.27
2023-10-29T15:23:47.349Z,100154.71
2023-10-29T15:26:22.444Z,100151.58
2023-10-29T15:28:51.131Z,100138.92
2023-10-29T15:31:19.335Z,100135.27
2023-10-29T15:33:47.811Z,100120.60
2023-10-29T15:36:16.496Z,100137.83
2023-10-29T15:38:45.030Z,100137.00
2023-10-29T15:41:14.047Z,100135.64
2023-10-29T15:43:42.172Z,100125.11
2023-10-29T15:46:10.490Z,100117.07
2023-10-29T15:48:38.871Z,100114.34
2023-10-29T15:51:09.883Z,100113.84
2023-10-29T15:53:38.474Z,100112.79
2023-10-29T15:56:10.983Z,100107.34
2023-10-29T15:58:39.291Z,100097.52
2023-10-29T16:01:16.662Z,100099.13
2023-10-29T16:03:48.898Z,100091.44
2023-10-29T16:06:17.212Z,100087.20
2023-10-29T16:08:45.374Z,100080.56
2023-10-29T16:11:23.514Z,100051.23
2023-10-29T16:13:51.975Z,100061.84
2023-10-29T16:16:23.423Z,100056.08
2023-10-29T16:18:53.716Z,100081.11
2023-10-29T16:21:21.985Z,100072.42
2023-10-29T16:23:50.165Z,100077.61
2023-10-29T16:26:18.585Z,100079.80
2023-10-29T16:28:47.117Z,100078.71
2023-10-29T16:31:19.173Z,100062.20
2023-10-29T16:33:47.960Z,100076.92
2023-10-29T16:36:17.626Z,100078.72
2023-10-29T16:38:46.750Z,100087.25
2023-10-29T16:41:17.231Z,100081.73
2023-10-29T16:43:49.349Z,100072.05
2023-10-29T16:46:19.315Z,100069.41
2023-10-29T16:48:48.647Z,100074.04
2023-10-29T16:51:17.119Z,100079.38
2023-10-29T16:53:45.712Z,100083.65
2023-10-29T16:56:14.316Z,100073.83
2023-10-29T16:58:43.883Z,100099.34
2023-10-29T17:01:13.846Z,100098.70
2023-10-29T17:03:43.280Z,100109.19
2023-10-29T17:06:11.996Z,100107.08
2023-10-29T17:08:40.449Z,100109.24
2023-10-29T17:11:08.973Z,100106.07
2023-10-29T17:13:37.444Z,100104.34
2023-10-29T17:16:06.256Z,100102.71
2023-10-29T17:18:35.549Z,100090.52
2023-10-29T17:21:04.493Z,100082.77
2023-10-29T17:23:33.089Z,100079.23
2023-10-29T17:26:01.669Z,100078.23
2023-10-29T17:28:30.084Z,100075.89
2023-10-29T17:30:58.698Z,100073.08
2023-10-29T17:33:27.178Z,100070.14
2023-10-29T17:35:55.690Z,100069.91
2023-10-29T17:38:24.159Z,100073.77
2023-10-29T17:40:52.650Z,100078.59
2023-10-29T17:43:23.211Z,100080.39
2023-10-29T17:45:53.398Z,100077.23
2023-10-29T17:48:22.121Z,100082.02
2023-10-29T17:50:58.183Z,100077.42
2023-10-29T17:53:26.869Z,100086.82
2023-10-29T17:55:56.118Z,100079.94
2023-10-29T17:58:24.664Z,100077.80
2023-10-29T18:00:53.406Z,100072.73
2023-10-29T18:03:21.883Z,100073.06
2023-10-29T18:05:50.271Z,100077.14
2023-10-29T18:08:18.709Z,100076.23
2023-10-29T18:10:47.846Z,100050.31
2023-10-29T18:13:16.499Z,100064.77
2023-10-29T18:15:44.855Z,100060.41
2023-10-29T18:18:13.994Z,100068.48
2023-10-29T18:20:44.299Z,100067.20
2023-10-29T18:23:12.938Z,100074.25
2023-10-29T18:25:41.337Z,100076.49
2023-10-29T18:28:09.976Z,100070.70
2023-10-29T18:30:38.372Z,100054.85
2023-10-29T18:33:06.968Z,100064.02
2023-10-29T18:35:35.378Z,100061.91
2023-10-29T18:38:05.529Z,100066.30
2023-10-29T18:40:36.359Z,100071.38
2023-10-29T18:43:04.840Z,100061.73
2023-10-29T18:45:33.325Z,100066.86
2023-10-29T18:48:01.895Z,100071.53
2023-10-29T18:50:30.589Z,100074.95
2023-10-29T18:52:58.954Z,100072.37
2023-10-29T18:55:27.273Z,100066.35
2023-10-29T18:57:55.764Z,100067.73
2023-10-29T19:00:24.836Z,100062.39
2023-10-29T19:02:53.720Z,100058.31
2023-10-29T19:05:22.430Z,100050.00
2023-10-29T19:07:50.897Z,100024.66
2023-10-29T19:10:19.669Z,100044.86
2023-10-29T19:12:48.134Z,100050.56
2023-10-29T19:15:19.137Z,100062.08
2023-10-29T19:17:47.786Z,100059.27
2023-10-29T19:20:17.158Z,100049.09
2023-10-29T19:22:45.600Z,100026.95
2023-10-29T19:25:14.119Z,100028.86
2023-10-29T19:27:42.609Z,100035.39
2023-10-29T19:30:11.502Z,100044.71
2023-10-29T19:32:42.050Z,100058.95
2023-10-29T19:35:11.229Z,100058.61
2023-10-29T19:37:40.502Z,100059.17
2023-10-29T19:40:09.827Z,100056.92
2023-10-29T19:42:40.192Z,100041.08
2023-10-29T19:45:09.353Z,100046.85
2023-10-29T19:47:37.759Z,100037.41
2023-10-29T19:50:07.884Z,100041.28
2023-10-29T19:52:36.315Z,100041.39
2023-10-29T19:55:05.301Z,100033.52
2023-10-29T19:57:34.248Z,100025.98
2023-10-29T20:00:02.741Z,100027.39
2023-10-29T20:02:32.904Z,100006.98
2023-10-29T20:05:01.467Z,100033.44
2023-10-29T20:07:30.015Z,100045.02
2023-10-29T20:09:58.395Z,100048.98
2023-10-29T20:12:27.297Z,100044.64
2023-10-29T20:14:55.720Z,100051.05
2023-10-29T20:17:24.097Z,100052.90
2023-10-29T20:19:52.447Z,100056.04
2023-10-29T20:22:20.938Z,100034.52
2023-10-29T20:24:54.802Z,100031.39
2023-10-29T20:27:23.271Z,99996.75
2023-10-29T20:29:51.505Z,100002.70
2023-10-29T20:32:20.199Z,100032.02
2023-10-29T20:34:48.528Z,100035.69
2023-10-29T20:37:16.734Z,100037.09
2023-10-29T20:39:45.023Z,100045.13
2023-10-29T20:42:13.458Z,100044.38
2023-10-29T20:44:41.744Z,100046.50
2023-10-29T20:47:11.153Z,100051.34
2023-10-29T20:49:39.574Z,100049.25
2023-10-29T20:52:07.940Z,100050.69
2023-10-29T20:54:38.285Z,100045.30
2023-10-29T20:57:06.507Z,100047.03
2023-10-29T20:59:34.678Z,100035.25
2023-10-29T21:02:03.027Z,100034.14
2023-10-29T21:04:31.358Z,100036.63
2023-10-29T21:06:59.701Z,100025.29
2023-10-29T21:09:28.128Z,100018.21
2023-10-29T21:11:56.654Z,100012.06
2023-10-29T21:14:24.940Z,100005.18
2023-10-29T21:16:53.180Z,100007.31
2023-10-29T21:19:27.070Z,100006.97
2023-10-29T21:21:58.839Z,100009.95
2023-10-29T21:24:28.046Z,100027.30
2023-10-29T21:26:57.074Z,100026.75
2023-10-29T21:29:25.804Z,100036.73
2023-10-29T21:31:54.332Z,100033.86
2023-10-29T21:34:22.491Z,100029.06
2023-10-29T21:36:50.808Z,100033.46
2023-10-29T21:39:19.063Z,100033.15
2023-10-29T21:41:47.507Z,100029.52
2023-10-29T21:44:15.969Z,100023.30
2023-10-29T21:46:46.191Z,100021.14
2023-10-29T21:49:14.830Z,100018.13
2023-10-29T21:51:42.964Z,100020.77
2023-10-29T21:54:11.112Z,100022.56
2023-10-29T21:56:39.215Z,100025.35
2023-10-29T21:59:07.499Z,100021.17
2023-10-29T22:01:35.808Z,100024.95
2023-10-29T22:04:04.644Z,100020.33
2023-10-29T22:06:34.040Z,100022.41
2023-10-29T22:09:02.726Z,100027.67
2023-10-29T22:11:30.905Z,100022.40
2023-10-29T22:13:59.018Z,100014.58
2023-10-29T22:16:27.207Z,100020.89
2023-10-29T22:18:55.495Z,100025.26
2023-10-29T22:21:23.621Z,100022.42
2023-10-29T22:23:51.870Z,100030.86
2023-10-29T22:26:20.142Z,100024.98
2023-10-29T22:28:48.322Z,100021.75
2023-10-29T22:31:16.787Z,100021.85
2023-10-29T22:33:44.937Z,100022.64
2023-10-29T22:36:13.222Z,100003.64
2023-10-29T22:38:41.399Z,100022.21
2023-10-29T22:41:16.289Z,100022.00
2023-10-29T22:43:45.103Z,100022.14
2023-10-29T22:46:21.586Z,100027.42
2023-10-29T22:48:51.236Z,100035.27
2023-10-29T22:51:19.966Z,100039.88
2023-10-29T22:53:48.231Z,100037.96
2023-10-29T22:56:16.341Z,100037.85
2023-10-29T22:58:44.446Z,100034.05
2023-10-29T23:01:12.685Z,100032.89
2023-10-29T23:03:41.044Z,100037.08
2023-10-29T23:06:09.563Z,100032.41
2023-10-29T23:08:37.807Z,100039.25
2023-10-29T23:11:07.527Z,100031.80
2023-10-29T23:13:35.638Z,100033.55
2023-10-29T23:16:04.063Z,100037.95
2023-10-29T23:18:32.236Z,100034.89
2023-10-29T23:21:00.386Z,100033.64
2023-10-29T23:23:28.689Z,100031.39
2023-10-29T23:25:56.861Z,100020.79
2023-10-29T23:28:37.058Z,100025.00
2023-10-29T23:31:10.061Z,100015.73
2023-10-29T23:33:38.761Z,99988.59
2023-10-29T23:36:07.442Z,99986.92
2023-10-29T23:38:35.605Z,99983.84
2023-10-29T23:41:03.987Z,99976.05
2023-10-29T23:43:32.243Z,99966.65
2023-10-29T23:46:00.534Z,99955.33
2023-10-29T23:48:29.092Z,99942.27
2023-10-29T23:50:57.348Z,99936.59
2023-10-29T23:53:25.459Z,99953.00
2023-10-29T23:55:53.576Z,99946.18
2023-10-29T23:58:21.963Z,99941.04
